sensor_id;sensor_type;location;lat;lon;timestamp;P1;durP1;ratioP1;P2;durP2;ratioP2
62894;SDS011;49204;44.916;37.998;2023-03-13T00:01:35;2.58;;;1.52;;
62894;SDS011;49204;44.916;37.998;2023-03-13T00:04:10;2.58;;;1.20;;
62894;SDS011;49204;44.916;37.998;2023-03-13T00:06:39;1.50;;;1.20;;
62894;SDS011;49204;44.916;37.998;2023-03-13T00:09:09;3.05;;;1.32;;
62894;SDS011;49204;44.916;37.998;2023-03-13T00:11:38;2.45;;;1.47;;
62894;SDS011;49204;44.916;37.998;2023-03-13T00:14:07;2.67;;;1.40;;
62894;SDS011;49204;44.916;37.998;2023-03-13T00:16:36;1.85;;;1.25;;
62894;SDS011;49204;44.916;37.998;2023-03-13T00:19:06;1.92;;;1.30;;
62894;SDS011;49204;44.916;37.998;2023-03-13T00:21:35;5.53;;;1.30;;
62894;SDS011;49204;44.916;37.998;2023-03-13T00:24:04;4.85;;;1.85;;
62894;SDS011;49204;44.916;37.998;2023-03-13T00:26:33;2.62;;;1.40;;
62894;SDS011;49204;44.916;37.998;2023-03-13T00:29:01;2.37;;;1.45;;
62894;SDS011;49204;44.916;37.998;2023-03-13T00:31:30;3.47;;;1.72;;
62894;SDS011;49204;44.916;37.998;2023-03-13T00:33:59;2.90;;;1.75;;
62894;SDS011;49204;44.916;37.998;2023-03-13T00:36:30;3.80;;;1.75;;
62894;SDS011;49204;44.916;37.998;2023-03-13T00:39:03;4.50;;;1.95;;
62894;SDS011;49204;44.916;37.998;2023-03-13T00:41:34;3.37;;;1.92;;
62894;SDS011;49204;44.916;37.998;2023-03-13T00:44:04;4.67;;;1.72;;
62894;SDS011;49204;44.916;37.998;2023-03-13T00:46:33;2.72;;;1.72;;
62894;SDS011;49204;44.916;37.998;2023-03-13T00:49:03;4.20;;;1.80;;
62894;SDS011;49204;44.916;37.998;2023-03-13T00:51:32;4.17;;;1.80;;
62894;SDS011;49204;44.916;37.998;2023-03-13T00:54:01;4.08;;;2.85;;
62894;SDS011;49204;44.916;37.998;2023-03-13T00:56:32;3.75;;;2.17;;
62894;SDS011;49204;44.916;37.998;2023-03-13T00:59:00;3.58;;;1.90;;
62894;SDS011;49204;44.916;37.998;2023-03-13T01:01:30;5.33;;;2.40;;
62894;SDS011;49204;44.916;37.998;2023-03-13T01:04:02;5.55;;;2.27;;
62894;SDS011;49204;44.916;37.998;2023-03-13T01:06:34;4.80;;;2.62;;
62894;SDS011;49204;44.916;37.998;2023-03-13T01:09:04;3.83;;;2.47;;
62894;SDS011;49204;44.916;37.998;2023-03-13T01:11:34;4.97;;;2.30;;
62894;SDS011;49204;44.916;37.998;2023-03-13T01:14:05;5.30;;;2.72;;
62894;SDS011;49204;44.916;37.998;2023-03-13T01:16:36;5.33;;;2.10;;
62894;SDS011;49204;44.916;37.998;2023-03-13T01:19:08;3.40;;;2.00;;
62894;SDS011;49204;44.916;37.998;2023-03-13T01:21:42;5.83;;;2.50;;
62894;SDS011;49204;44.916;37.998;2023-03-13T01:24:11;6.58;;;2.98;;
62894;SDS011;49204;44.916;37.998;2023-03-13T01:26:42;5.90;;;2.52;;
62894;SDS011;49204;44.916;37.998;2023-03-13T01:29:10;3.10;;;1.72;;
62894;SDS011;49204;44.916;37.998;2023-03-13T01:31:39;3.42;;;1.75;;
62894;SDS011;49204;44.916;37.998;2023-03-13T01:34:09;5.47;;;2.30;;
62894;SDS011;49204;44.916;37.998;2023-03-13T01:36:37;3.95;;;2.52;;
62894;SDS011;49204;44.916;37.998;2023-03-13T01:39:06;4.60;;;2.27;;
62894;SDS011;49204;44.916;37.998;2023-03-13T01:41:36;5.90;;;2.47;;
62894;SDS011;49204;44.916;37.998;2023-03-13T01:44:04;7.17;;;2.72;;
62894;SDS011;49204;44.916;37.998;2023-03-13T01:46:36;4.30;;;1.47;;
62894;SDS011;49204;44.916;37.998;2023-03-13T01:52:02;9.80;;;2.75;;
62894;SDS011;49204;44.916;37.998;2023-03-13T01:54:36;6.20;;;3.15;;
62894;SDS011;49204;44.916;37.998;2023-03-13T01:57:07;5.33;;;3.10;;
62894;SDS011;49204;44.916;37.998;2023-03-13T01:59:45;6.80;;;3.33;;
62894;SDS011;49204;44.916;37.998;2023-03-13T02:02:11;6.45;;;2.65;;
62894;SDS011;49204;44.916;37.998;2023-03-13T02:04:45;4.92;;;2.40;;
62894;SDS011;49204;44.916;37.998;2023-03-13T02:07:18;4.55;;;2.50;;
62894;SDS011;49204;44.916;37.998;2023-03-13T02:09:49;6.95;;;3.22;;
62894;SDS011;49204;44.916;37.998;2023-03-13T02:12:54;7.97;;;3.45;;
62894;SDS011;49204;44.916;37.998;2023-03-13T02:14:58;6.05;;;3.17;;
62894;SDS011;49204;44.916;37.998;2023-03-13T02:17:35;5.75;;;3.47;;
62894;SDS011;49204;44.916;37.998;2023-03-13T02:20:07;5.80;;;2.85;;
62894;SDS011;49204;44.916;37.998;2023-03-13T02:27:57;6.97;;;3.45;;
62894;SDS011;49204;44.916;37.998;2023-03-13T02:30:46;5.37;;;3.08;;
62894;SDS011;49204;44.916;37.998;2023-03-13T02:33:16;6.28;;;2.92;;
62894;SDS011;49204;44.916;37.998;2023-03-13T02:35:46;6.37;;;2.95;;
62894;SDS011;49204;44.916;37.998;2023-03-13T02:38:19;6.45;;;3.40;;
62894;SDS011;49204;44.916;37.998;2023-03-13T02:40:48;5.62;;;2.75;;
62894;SDS011;49204;44.916;37.998;2023-03-13T02:43:21;6.72;;;2.95;;
62894;SDS011;49204;44.916;37.998;2023-03-13T02:46:01;7.72;;;3.40;;
62894;SDS011;49204;44.916;37.998;2023-03-13T02:48:36;7.53;;;3.27;;
62894;SDS011;49204;44.916;37.998;2023-03-13T02:51:12;8.40;;;4.05;;
62894;SDS011;49204;44.916;37.998;2023-03-13T02:53:41;5.85;;;3.33;;
62894;SDS011;49204;44.916;37.998;2023-03-13T02:56:11;5.33;;;3.25;;
62894;SDS011;49204;44.916;37.998;2023-03-13T02:58:43;6.97;;;3.33;;
62894;SDS011;49204;44.916;37.998;2023-03-13T03:01:11;4.87;;;2.72;;
62894;SDS011;49204;44.916;37.998;2023-03-13T03:03:40;7.40;;;3.30;;
62894;SDS011;49204;44.916;37.998;2023-03-13T03:06:09;3.87;;;2.35;;
62894;SDS011;49204;44.916;37.998;2023-03-13T03:08:38;6.97;;;3.60;;
62894;SDS011;49204;44.916;37.998;2023-03-13T03:11:10;7.25;;;3.15;;
62894;SDS011;49204;44.916;37.998;2023-03-13T03:13:39;6.35;;;3.47;;
62894;SDS011;49204;44.916;37.998;2023-03-13T03:16:09;7.25;;;3.25;;
62894;SDS011;49204;44.916;37.998;2023-03-13T03:18:40;7.67;;;3.72;;
62894;SDS011;49204;44.916;37.998;2023-03-13T03:21:09;5.58;;;3.25;;
62894;SDS011;49204;44.916;37.998;2023-03-13T03:23:38;8.88;;;2.58;;
62894;SDS011;49204;44.916;37.998;2023-03-13T03:26:07;10.03;;;3.70;;
62894;SDS011;49204;44.916;37.998;2023-03-13T03:28:36;7.20;;;3.25;;
62894;SDS011;49204;44.916;37.998;2023-03-13T03:31:06;9.30;;;3.83;;
62894;SDS011;49204;44.916;37.998;2023-03-13T03:33:38;9.23;;;3.72;;
62894;SDS011;49204;44.916;37.998;2023-03-13T03:36:11;5.95;;;3.25;;
62894;SDS011;49204;44.916;37.998;2023-03-13T03:38:41;6.22;;;3.37;;
62894;SDS011;49204;44.916;37.998;2023-03-13T03:41:11;8.58;;;3.20;;
62894;SDS011;49204;44.916;37.998;2023-03-13T03:43:41;6.25;;;3.08;;
62894;SDS011;49204;44.916;37.998;2023-03-13T03:46:12;8.95;;;3.27;;
62894;SDS011;49204;44.916;37.998;2023-03-13T03:48:41;4.55;;;3.00;;
62894;SDS011;49204;44.916;37.998;2023-03-13T03:51:10;7.60;;;3.70;;
62894;SDS011;49204;44.916;37.998;2023-03-13T03:53:41;6.03;;;3.17;;
62894;SDS011;49204;44.916;37.998;2023-03-13T03:56:09;10.95;;;4.20;;
62894;SDS011;49204;44.916;37.998;2023-03-13T03:58:39;8.65;;;3.58;;
62894;SDS011;49204;44.916;37.998;2023-03-13T04:01:22;8.65;;;3.92;;
62894;SDS011;49204;44.916;37.998;2023-03-13T04:03:51;6.97;;;3.52;;
62894;SDS011;49204;44.916;37.998;2023-03-13T04:06:19;8.50;;;3.52;;
62894;SDS011;49204;44.916;37.998;2023-03-13T04:08:48;8.18;;;3.52;;
62894;SDS011;49204;44.916;37.998;2023-03-13T04:11:18;6.55;;;3.75;;
62894;SDS011;49204;44.916;37.998;2023-03-13T04:13:49;8.28;;;4.05;;
62894;SDS011;49204;44.916;37.998;2023-03-13T04:16:18;8.70;;;4.08;;
62894;SDS011;49204;44.916;37.998;2023-03-13T04:18:47;8.10;;;4.30;;
62894;SDS011;49204;44.916;37.998;2023-03-13T04:21:16;8.00;;;4.05;;
62894;SDS011;49204;44.916;37.998;2023-03-13T04:23:53;8.98;;;3.83;;
62894;SDS011;49204;44.916;37.998;2023-03-13T04:26:22;8.73;;;3.67;;
62894;SDS011;49204;44.916;37.998;2023-03-13T04:28:52;7.05;;;3.58;;
62894;SDS011;49204;44.916;37.998;2023-03-13T04:31:22;5.78;;;3.40;;
62894;SDS011;49204;44.916;37.998;2023-03-13T04:34:04;6.85;;;3.60;;
62894;SDS011;49204;44.916;37.998;2023-03-13T04:36:40;6.03;;;3.20;;
62894;SDS011;49204;44.916;37.998;2023-03-13T04:39:27;7.17;;;3.30;;
62894;SDS011;49204;44.916;37.998;2023-03-13T04:42:13;7.53;;;3.50;;
62894;SDS011;49204;44.916;37.998;2023-03-13T04:45:00;6.90;;;3.17;;
62894;SDS011;49204;44.916;37.998;2023-03-13T04:47:36;6.30;;;3.65;;
62894;SDS011;49204;44.916;37.998;2023-03-13T04:50:09;7.40;;;3.37;;
62894;SDS011;49204;44.916;37.998;2023-03-13T04:52:43;7.08;;;3.52;;
62894;SDS011;49204;44.916;37.998;2023-03-13T04:55:13;7.28;;;3.05;;
62894;SDS011;49204;44.916;37.998;2023-03-13T04:58:00;19.25;;;5.03;;
62894;SDS011;49204;44.916;37.998;2023-03-13T05:00:45;3.98;;;2.17;;
62894;SDS011;49204;44.916;37.998;2023-03-13T05:03:22;5.72;;;2.83;;
62894;SDS011;49204;44.916;37.998;2023-03-13T05:05:52;6.22;;;3.08;;
62894;SDS011;49204;44.916;37.998;2023-03-13T05:08:23;6.37;;;2.27;;
62894;SDS011;49204;44.916;37.998;2023-03-13T05:10:53;4.53;;;2.92;;
62894;SDS011;49204;44.916;37.998;2023-03-13T05:13:26;5.25;;;2.80;;
62894;SDS011;49204;44.916;37.998;2023-03-13T05:15:59;4.60;;;2.60;;
62894;SDS011;49204;44.916;37.998;2023-03-13T05:18:36;5.37;;;2.77;;
62894;SDS011;49204;44.916;37.998;2023-03-13T05:21:06;3.98;;;2.77;;
62894;SDS011;49204;44.916;37.998;2023-03-13T05:23:37;7.25;;;2.40;;
62894;SDS011;49204;44.916;37.998;2023-03-13T05:26:10;6.03;;;2.55;;
62894;SDS011;49204;44.916;37.998;2023-03-13T05:28:43;7.90;;;2.55;;
62894;SDS011;49204;44.916;37.998;2023-03-13T05:31:13;4.00;;;2.42;;
62894;SDS011;49204;44.916;37.998;2023-03-13T05:33:43;9.05;;;3.02;;
62894;SDS011;49204;44.916;37.998;2023-03-13T05:36:22;3.87;;;2.12;;
62894;SDS011;49204;44.916;37.998;2023-03-13T05:39:09;4.78;;;1.92;;
62894;SDS011;49204;44.916;37.998;2023-03-13T05:41:42;4.45;;;1.98;;
62894;SDS011;49204;44.916;37.998;2023-03-13T05:44:18;3.67;;;2.22;;
62894;SDS011;49204;44.916;37.998;2023-03-13T05:46:51;3.37;;;1.75;;
62894;SDS011;49204;44.916;37.998;2023-03-13T05:49:38;5.53;;;2.37;;
62894;SDS011;49204;44.916;37.998;2023-03-13T05:52:14;1.30;;;0.65;;
62894;SDS011;49204;44.916;37.998;2023-03-13T05:54:54;2.17;;;1.22;;
62894;SDS011;49204;44.916;37.998;2023-03-13T05:57:37;2.72;;;1.60;;
62894;SDS011;49204;44.916;37.998;2023-03-13T06:00:07;8.63;;;2.12;;
62894;SDS011;49204;44.916;37.998;2023-03-13T06:02:39;2.58;;;1.07;;
62894;SDS011;49204;44.916;37.998;2023-03-13T06:05:10;6.22;;;1.50;;
62894;SDS011;49204;44.916;37.998;2023-03-13T06:07:39;2.33;;;1.07;;
62894;SDS011;49204;44.916;37.998;2023-03-13T06:10:08;4.00;;;1.40;;
62894;SDS011;49204;44.916;37.998;2023-03-13T06:12:38;5.12;;;1.10;;
62894;SDS011;49204;44.916;37.998;2023-03-13T06:15:08;1.75;;;0.75;;
62894;SDS011;49204;44.916;37.998;2023-03-13T06:20:09;0.98;;;0.72;;
62894;SDS011;49204;44.916;37.998;2023-03-13T06:22:39;0.98;;;0.78;;
62894;SDS011;49204;44.916;37.998;2023-03-13T06:25:08;4.10;;;1.30;;
62894;SDS011;49204;44.916;37.998;2023-03-13T06:27:37;3.37;;;1.25;;
62894;SDS011;49204;44.916;37.998;2023-03-13T06:30:08;3.20;;;1.57;;
62894;SDS011;49204;44.916;37.998;2023-03-13T06:32:38;5.20;;;2.33;;
62894;SDS011;49204;44.916;37.998;2023-03-13T06:35:06;10.50;;;2.15;;
62894;SDS011;49204;44.916;37.998;2023-03-13T06:37:35;3.83;;;1.57;;
62894;SDS011;49204;44.916;37.998;2023-03-13T06:40:04;2.67;;;1.40;;
62894;SDS011;49204;44.916;37.998;2023-03-13T06:42:34;2.80;;;1.70;;
62894;SDS011;49204;44.916;37.998;2023-03-13T06:45:02;3.60;;;2.05;;
62894;SDS011;49204;44.916;37.998;2023-03-13T06:47:31;4.05;;;2.12;;
62894;SDS011;49204;44.916;37.998;2023-03-13T06:50:00;4.25;;;2.20;;
62894;SDS011;49204;44.916;37.998;2023-03-13T06:52:28;9.68;;;3.08;;
62894;SDS011;49204;44.916;37.998;2023-03-13T06:54:57;5.33;;;2.02;;
62894;SDS011;49204;44.916;37.998;2023-03-13T06:57:26;4.25;;;0.95;;
62894;SDS011;49204;44.916;37.998;2023-03-13T06:59:55;0.75;;;0.62;;
62894;SDS011;49204;44.916;37.998;2023-03-13T07:02:24;3.37;;;1.12;;
62894;SDS011;49204;44.916;37.998;2023-03-13T07:04:52;3.25;;;1.00;;
62894;SDS011;49204;44.916;37.998;2023-03-13T07:07:21;4.75;;;2.12;;
62894;SDS011;49204;44.916;37.998;2023-03-13T07:09:49;4.35;;;1.82;;
62894;SDS011;49204;44.916;37.998;2023-03-13T07:12:18;1.95;;;1.17;;
62894;SDS011;49204;44.916;37.998;2023-03-13T07:14:47;2.22;;;1.10;;
62894;SDS011;49204;44.916;37.998;2023-03-13T07:17:15;3.02;;;1.05;;
62894;SDS011;49204;44.916;37.998;2023-03-13T07:19:44;3.72;;;1.20;;
62894;SDS011;49204;44.916;37.998;2023-03-13T07:22:13;4.50;;;1.10;;
62894;SDS011;49204;44.916;37.998;2023-03-13T07:24:41;2.95;;;1.30;;
62894;SDS011;49204;44.916;37.998;2023-03-13T07:27:10;2.72;;;1.72;;
62894;SDS011;49204;44.916;37.998;2023-03-13T07:29:39;8.65;;;2.45;;
62894;SDS011;49204;44.916;37.998;2023-03-13T07:32:08;5.70;;;2.10;;
62894;SDS011;49204;44.916;37.998;2023-03-13T07:34:36;2.80;;;1.00;;
62894;SDS011;49204;44.916;37.998;2023-03-13T07:37:05;3.98;;;1.45;;
62894;SDS011;49204;44.916;37.998;2023-03-13T07:39:33;1.55;;;1.07;;
62894;SDS011;49204;44.916;37.998;2023-03-13T07:42:02;2.87;;;2.05;;
62894;SDS011;49204;44.916;37.998;2023-03-13T07:44:33;4.08;;;1.55;;
62894;SDS011;49204;44.916;37.998;2023-03-13T07:47:01;4.50;;;1.80;;
62894;SDS011;49204;44.916;37.998;2023-03-13T07:49:30;1.67;;;1.20;;
62894;SDS011;49204;44.916;37.998;2023-03-13T07:51:59;6.05;;;1.45;;
62894;SDS011;49204;44.916;37.998;2023-03-13T07:54:27;5.28;;;1.00;;
62894;SDS011;49204;44.916;37.998;2023-03-13T07:56:56;1.22;;;0.75;;
62894;SDS011;49204;44.916;37.998;2023-03-13T07:59:25;2.00;;;1.00;;
62894;SDS011;49204;44.916;37.998;2023-03-13T08:01:54;3.85;;;1.70;;
62894;SDS011;49204;44.916;37.998;2023-03-13T08:04:22;3.70;;;1.12;;
62894;SDS011;49204;44.916;37.998;2023-03-13T08:06:51;5.80;;;2.08;;
62894;SDS011;49204;44.916;37.998;2023-03-13T08:09:20;1.32;;;1.10;;
62894;SDS011;49204;44.916;37.998;2023-03-13T08:11:48;3.17;;;1.47;;
62894;SDS011;49204;44.916;37.998;2023-03-13T08:14:17;1.90;;;0.80;;
62894;SDS011;49204;44.916;37.998;2023-03-13T08:16:46;2.17;;;1.07;;
62894;SDS011;49204;44.916;37.998;2023-03-13T08:19:14;2.10;;;0.90;;
62894;SDS011;49204;44.916;37.998;2023-03-13T08:21:43;1.87;;;0.90;;
62894;SDS011;49204;44.916;37.998;2023-03-13T08:24:11;3.75;;;1.20;;
62894;SDS011;49204;44.916;37.998;2023-03-13T08:26:40;1.25;;;1.12;;
62894;SDS011;49204;44.916;37.998;2023-03-13T08:29:10;4.70;;;1.32;;
62894;SDS011;49204;44.916;37.998;2023-03-13T08:31:44;1.40;;;1.00;;
62894;SDS011;49204;44.916;37.998;2023-03-13T08:34:15;0.95;;;0.85;;
62894;SDS011;49204;44.916;37.998;2023-03-13T08:36:44;3.40;;;0.80;;
62894;SDS011;49204;44.916;37.998;2023-03-13T08:39:14;2.47;;;1.27;;
62894;SDS011;49204;44.916;37.998;2023-03-13T08:41:44;1.92;;;1.15;;
62894;SDS011;49204;44.916;37.998;2023-03-13T08:44:13;1.90;;;1.15;;
62894;SDS011;49204;44.916;37.998;2023-03-13T08:46:44;3.58;;;1.82;;
62894;SDS011;49204;44.916;37.998;2023-03-13T08:49:14;3.67;;;1.47;;
62894;SDS011;49204;44.916;37.998;2023-03-13T08:51:43;8.95;;;1.17;;
62894;SDS011;49204;44.916;37.998;2023-03-13T08:54:11;2.90;;;1.07;;
62894;SDS011;49204;44.916;37.998;2023-03-13T08:56:40;6.72;;;1.07;;
62894;SDS011;49204;44.916;37.998;2023-03-13T08:59:09;3.95;;;1.62;;
62894;SDS011;49204;44.916;37.998;2023-03-13T09:01:38;3.90;;;1.52;;
62894;SDS011;49204;44.916;37.998;2023-03-13T09:04:06;2.83;;;1.00;;
62894;SDS011;49204;44.916;37.998;2023-03-13T09:06:36;2.35;;;1.47;;
62894;SDS011;49204;44.916;37.998;2023-03-13T09:09:05;5.75;;;1.30;;
62894;SDS011;49204;44.916;37.998;2023-03-13T09:11:35;1.25;;;0.88;;
62894;SDS011;49204;44.916;37.998;2023-03-13T09:14:05;3.77;;;1.02;;
62894;SDS011;49204;44.916;37.998;2023-03-13T09:16:34;1.10;;;0.90;;
62894;SDS011;49204;44.916;37.998;2023-03-13T09:19:04;2.90;;;1.80;;
62894;SDS011;49204;44.916;37.998;2023-03-13T09:21:33;2.87;;;1.42;;
62894;SDS011;49204;44.916;37.998;2023-03-13T09:24:02;3.22;;;1.30;;
62894;SDS011;49204;44.916;37.998;2023-03-13T09:26:31;2.72;;;1.32;;
62894;SDS011;49204;44.916;37.998;2023-03-13T09:28:59;3.27;;;1.02;;
62894;SDS011;49204;44.916;37.998;2023-03-13T09:31:29;2.70;;;1.20;;
62894;SDS011;49204;44.916;37.998;2023-03-13T09:33:59;2.75;;;1.42;;
62894;SDS011;49204;44.916;37.998;2023-03-13T09:36:28;6.08;;;1.25;;
62894;SDS011;49204;44.916;37.998;2023-03-13T09:38:57;2.60;;;1.05;;
62894;SDS011;49204;44.916;37.998;2023-03-13T09:41:42;4.50;;;1.80;;
62894;SDS011;49204;44.916;37.998;2023-03-13T09:44:17;4.53;;;1.40;;
62894;SDS011;49204;44.916;37.998;2023-03-13T09:52:32;1.55;;;0.80;;
62894;SDS011;49204;44.916;37.998;2023-03-13T09:54:58;2.35;;;0.98;;
62894;SDS011;49204;44.916;37.998;2023-03-13T09:57:32;4.45;;;1.05;;
62894;SDS011;49204;44.916;37.998;2023-03-13T10:00:13;2.62;;;1.30;;
62894;SDS011;49204;44.916;37.998;2023-03-13T10:02:56;1.95;;;1.05;;
62894;SDS011;49204;44.916;37.998;2023-03-13T10:05:42;1.37;;;1.00;;
62894;SDS011;49204;44.916;37.998;2023-03-13T10:08:30;2.42;;;1.20;;
62894;SDS011;49204;44.916;37.998;2023-03-13T10:13:41;1.47;;;0.90;;
62894;SDS011;49204;44.916;37.998;2023-03-13T10:16:41;1.85;;;0.90;;
62894;SDS011;49204;44.916;37.998;2023-03-13T10:18:55;6.17;;;1.25;;
62894;SDS011;49204;44.916;37.998;2023-03-13T10:21:27;2.05;;;1.05;;
62894;SDS011;49204;44.916;37.998;2023-03-13T10:27:04;3.95;;;1.00;;
62894;SDS011;49204;44.916;37.998;2023-03-13T10:29:34;1.17;;;0.88;;
62894;SDS011;49204;44.916;37.998;2023-03-13T10:32:05;1.95;;;1.20;;
62894;SDS011;49204;44.916;37.998;2023-03-13T10:37:27;7.37;;;1.67;;
62894;SDS011;49204;44.916;37.998;2023-03-13T10:40:19;2.17;;;1.50;;
62894;SDS011;49204;44.916;37.998;2023-03-13T10:42:44;4.97;;;1.35;;
62894;SDS011;49204;44.916;37.998;2023-03-13T10:45:15;2.08;;;1.07;;
62894;SDS011;49204;44.916;37.998;2023-03-13T10:47:45;2.65;;;1.05;;
62894;SDS011;49204;44.916;37.998;2023-03-13T10:50:23;3.27;;;1.45;;
62894;SDS011;49204;44.916;37.998;2023-03-13T10:52:53;3.22;;;1.30;;
62894;SDS011;49204;44.916;37.998;2023-03-13T10:55:23;2.02;;;1.00;;
62894;SDS011;49204;44.916;37.998;2023-03-13T10:58:02;2.00;;;1.17;;
62894;SDS011;49204;44.916;37.998;2023-03-13T11:00:36;2.52;;;1.22;;
62894;SDS011;49204;44.916;37.998;2023-03-13T11:03:17;2.30;;;1.42;;
62894;SDS011;49204;44.916;37.998;2023-03-13T11:05:40;6.30;;;2.22;;
62894;SDS011;49204;44.916;37.998;2023-03-13T11:08:11;3.42;;;1.42;;
62894;SDS011;49204;44.916;37.998;2023-03-13T11:10:55;5.00;;;1.47;;
62894;SDS011;49204;44.916;37.998;2023-03-13T11:13:40;3.17;;;0.98;;
62894;SDS011;49204;44.916;37.998;2023-03-13T11:16:13;4.75;;;1.60;;
62894;SDS011;49204;44.916;37.998;2023-03-13T11:19:17;4.70;;;1.70;;
62894;SDS011;49204;44.916;37.998;2023-03-13T11:27:40;7.15;;;1.60;;
62894;SDS011;49204;44.916;37.998;2023-03-13T11:30:30;4.45;;;1.70;;
62894;SDS011;49204;44.916;37.998;2023-03-13T11:38:58;3.55;;;1.20;;
62894;SDS011;49204;44.916;37.998;2023-03-13T11:41:44;1.67;;;1.42;;
62894;SDS011;49204;44.916;37.998;2023-03-13T11:44:22;7.92;;;1.10;;
62894;SDS011;49204;44.916;37.998;2023-03-13T11:47:19;2.87;;;1.37;;
62894;SDS011;49204;44.916;37.998;2023-03-13T11:52:50;3.27;;;1.40;;
62894;SDS011;49204;44.916;37.998;2023-03-13T11:55:24;3.05;;;1.60;;
62894;SDS011;49204;44.916;37.998;2023-03-13T12:03:18;3.42;;;1.60;;
62894;SDS011;49204;44.916;37.998;2023-03-13T12:05:51;5.08;;;1.77;;
62894;SDS011;49204;44.916;37.998;2023-03-13T12:08:46;2.08;;;1.40;;
62894;SDS011;49204;44.916;37.998;2023-03-13T12:11:28;1.95;;;1.35;;
62894;SDS011;49204;44.916;37.998;2023-03-13T12:14:04;6.42;;;1.75;;
62894;SDS011;49204;44.916;37.998;2023-03-13T12:16:39;2.20;;;1.42;;
62894;SDS011;49204;44.916;37.998;2023-03-13T12:19:18;3.25;;;1.27;;
62894;SDS011;49204;44.916;37.998;2023-03-13T12:24:26;2.95;;;1.45;;
62894;SDS011;49204;44.916;37.998;2023-03-13T12:27:16;2.37;;;1.75;;
62894;SDS011;49204;44.916;37.998;2023-03-13T12:29:57;5.72;;;2.35;;
62894;SDS011;49204;44.916;37.998;2023-03-13T12:35:27;6.62;;;1.37;;
62894;SDS011;49204;44.916;37.998;2023-03-13T12:38:15;2.17;;;1.40;;
62894;SDS011;49204;44.916;37.998;2023-03-13T12:43:46;5.40;;;2.25;;
62894;SDS011;49204;44.916;37.998;2023-03-13T12:52:10;2.58;;;2.00;;
62894;SDS011;49204;44.916;37.998;2023-03-13T13:00:34;4.28;;;2.20;;
62894;SDS011;49204;44.916;37.998;2023-03-13T13:06:02;3.35;;;2.08;;
62894;SDS011;49204;44.916;37.998;2023-03-13T13:08:42;2.83;;;2.40;;
62894;SDS011;49204;44.916;37.998;2023-03-13T13:11:39;6.22;;;2.60;;
62894;SDS011;49204;44.916;37.998;2023-03-13T13:16:53;2.75;;;1.95;;
62894;SDS011;49204;44.916;37.998;2023-03-13T13:27:46;2.92;;;1.80;;
62894;SDS011;49204;44.916;37.998;2023-03-13T13:33:43;6.33;;;3.50;;
62894;SDS011;49204;44.916;37.998;2023-03-13T13:35:33;7.47;;;2.50;;
62894;SDS011;49204;44.916;37.998;2023-03-13T13:43:40;6.03;;;2.60;;
62894;SDS011;49204;44.916;37.998;2023-03-13T13:46:28;5.17;;;3.02;;
62894;SDS011;49204;44.916;37.998;2023-03-13T13:57:15;2.52;;;1.72;;
62894;SDS011;49204;44.916;37.998;2023-03-13T13:59:55;2.37;;;1.62;;
62894;SDS011;49204;44.916;37.998;2023-03-13T14:02:28;8.30;;;3.47;;
62894;SDS011;49204;44.916;37.998;2023-03-13T14:05:16;4.35;;;2.72;;
62894;SDS011;49204;44.916;37.998;2023-03-13T14:07:31;2.75;;;2.05;;
62894;SDS011;49204;44.916;37.998;2023-03-13T14:10:25;11.03;;;5.15;;
62894;SDS011;49204;44.916;37.998;2023-03-13T14:12:59;6.08;;;2.75;;
62894;SDS011;49204;44.916;37.998;2023-03-13T14:15:29;2.60;;;2.17;;
62894;SDS011;49204;44.916;37.998;2023-03-13T14:20:50;3.72;;;2.47;;
62894;SDS011;49204;44.916;37.998;2023-03-13T14:26:15;20.68;;;6.80;;
62894;SDS011;49204;44.916;37.998;2023-03-13T14:28:46;48.35;;;15.43;;
62894;SDS011;49204;44.916;37.998;2023-03-13T14:31:52;31.27;;;9.48;;
62894;SDS011;49204;44.916;37.998;2023-03-13T14:33:55;11.95;;;6.12;;
62894;SDS011;49204;44.916;37.998;2023-03-13T14:36:26;10.65;;;6.10;;
62894;SDS011;49204;44.916;37.998;2023-03-13T14:39:00;8.05;;;4.75;;
62894;SDS011;49204;44.916;37.998;2023-03-13T14:41:29;5.80;;;3.72;;
62894;SDS011;49204;44.916;37.998;2023-03-13T14:44:00;3.58;;;2.42;;
62894;SDS011;49204;44.916;37.998;2023-03-13T14:46:32;3.17;;;2.87;;
62894;SDS011;49204;44.916;37.998;2023-03-13T14:49:18;3.45;;;3.00;;
62894;SDS011;49204;44.916;37.998;2023-03-13T14:52:04;3.72;;;3.20;;
62894;SDS011;49204;44.916;37.998;2023-03-13T14:57:04;4.30;;;1.92;;
62894;SDS011;49204;44.916;37.998;2023-03-13T14:59:37;6.80;;;3.37;;
62894;SDS011;49204;44.916;37.998;2023-03-13T15:02:14;5.80;;;2.30;;
62894;SDS011;49204;44.916;37.998;2023-03-13T15:07:47;3.42;;;1.20;;
62894;SDS011;49204;44.916;37.998;2023-03-13T15:10:18;6.80;;;2.33;;
62894;SDS011;49204;44.916;37.998;2023-03-13T15:12:55;3.35;;;1.87;;
62894;SDS011;49204;44.916;37.998;2023-03-13T15:15:24;1.95;;;1.25;;
62894;SDS011;49204;44.916;37.998;2023-03-13T15:17:52;3.52;;;1.52;;
62894;SDS011;49204;44.916;37.998;2023-03-13T15:20:21;2.65;;;1.52;;
62894;SDS011;49204;44.916;37.998;2023-03-13T15:22:49;2.85;;;1.62;;
62894;SDS011;49204;44.916;37.998;2023-03-13T15:25:19;2.83;;;1.47;;
62894;SDS011;49204;44.916;37.998;2023-03-13T15:27:49;2.22;;;1.10;;
62894;SDS011;49204;44.916;37.998;2023-03-13T15:30:19;2.22;;;1.35;;
62894;SDS011;49204;44.916;37.998;2023-03-13T15:32:52;1.52;;;1.42;;
62894;SDS011;49204;44.916;37.998;2023-03-13T15:35:27;5.28;;;2.45;;
62894;SDS011;49204;44.916;37.998;2023-03-13T15:37:58;4.85;;;2.35;;
62894;SDS011;49204;44.916;37.998;2023-03-13T15:40:28;2.35;;;1.20;;
62894;SDS011;49204;44.916;37.998;2023-03-13T15:42:57;4.17;;;2.17;;
62894;SDS011;49204;44.916;37.998;2023-03-13T15:45:26;1.57;;;1.30;;
62894;SDS011;49204;44.916;37.998;2023-03-13T15:47:54;1.35;;;0.88;;
62894;SDS011;49204;44.916;37.998;2023-03-13T15:50:23;7.10;;;2.22;;
62894;SDS011;49204;44.916;37.998;2023-03-13T15:52:53;3.10;;;1.70;;
62894;SDS011;49204;44.916;37.998;2023-03-13T15:55:23;1.90;;;1.20;;
62894;SDS011;49204;44.916;37.998;2023-03-13T15:57:52;2.52;;;1.37;;
62894;SDS011;49204;44.916;37.998;2023-03-13T16:00:22;3.02;;;1.42;;
62894;SDS011;49204;44.916;37.998;2023-03-13T16:02:52;2.95;;;1.57;;
62894;SDS011;49204;44.916;37.998;2023-03-13T16:05:21;3.25;;;1.42;;
62894;SDS011;49204;44.916;37.998;2023-03-13T16:07:49;9.68;;;3.40;;
62894;SDS011;49204;44.916;37.998;2023-03-13T16:10:19;3.40;;;1.77;;
62894;SDS011;49204;44.916;37.998;2023-03-13T16:12:49;4.03;;;1.67;;
62894;SDS011;49204;44.916;37.998;2023-03-13T16:15:19;5.80;;;3.47;;
62894;SDS011;49204;44.916;37.998;2023-03-13T16:17:48;4.78;;;2.52;;
62894;SDS011;49204;44.916;37.998;2023-03-13T16:20:17;7.80;;;4.15;;
62894;SDS011;49204;44.916;37.998;2023-03-13T16:22:47;6.62;;;3.10;;
62894;SDS011;49204;44.916;37.998;2023-03-13T16:25:16;8.68;;;4.65;;
62894;SDS011;49204;44.916;37.998;2023-03-13T16:27:45;8.00;;;3.20;;
62894;SDS011;49204;44.916;37.998;2023-03-13T16:30:21;5.45;;;2.50;;
62894;SDS011;49204;44.916;37.998;2023-03-13T16:32:51;4.47;;;3.33;;
62894;SDS011;49204;44.916;37.998;2023-03-13T16:35:20;13.58;;;3.65;;
62894;SDS011;49204;44.916;37.998;2023-03-13T16:37:51;4.97;;;3.02;;
62894;SDS011;49204;44.916;37.998;2023-03-13T16:40:22;7.42;;;3.47;;
62894;SDS011;49204;44.916;37.998;2023-03-13T16:42:52;13.72;;;5.90;;
62894;SDS011;49204;44.916;37.998;2023-03-13T16:45:21;10.75;;;4.70;;
62894;SDS011;49204;44.916;37.998;2023-03-13T16:47:49;11.35;;;3.65;;
62894;SDS011;49204;44.916;37.998;2023-03-13T16:52:59;8.83;;;5.25;;